Главная страница
METAR-TAF:

METAR-TAF

Аэропорты :

Дубай, Объединенные Арабские Эмираты

широта: 25-15-10N, долгота: 055-21-52E, высота над уровнем моря: 8 м

Текущие метеонаблюдения

Эта сводка был подготовлена 35 минут назад, в 10:00 UTC
Ветер 9 Узел от западный
Температура 40°C
Влажность 46%
Давление 992 hPa
Видимость 10 км и более
Нет облачности ниже 1500 м, и нет кучево-дождевой облачности

METAR: OMDB 161000Z 27009KT CAVOK 40/26 Q0992 NOSIG

Время: 14:35 (10:35 UTC)

Прогноз

Эта сводка был подготовлена 5 часа и 35 минут назад, в 05:00 UTC
Прогноз действительный с 16-го 06 UTC до 17-го 12 UTC
Ветер 8 Узел от южный-юго-западный
Видимость: 8000 м
изменения
С 16-го 06 UTC до 16-го 08 UTC
Ветер 15 Узел от западный
изменения
С 16-го 16 UTC до 16-го 18 UTC
Ветер 7 Узел от южный-юго-западный
изменения
С 17-го 06 UTC до 17-го 08 UTC
Ветер 12 Узел от западный

TAF: OMDB 160500Z 1606/1712 21008KT 8000 NSC BECMG 1606/1608 27015KT BECMG 1616/1618 20007KT BECMG 1706/1708 28012KT

Метеонаблюдения и прогнозы для более 4000 аэропортов (сводки METAR и TAF).

Имеющиеся станции представлены на карте желтыми и красными точками.

Чтобы увидеть название станции, наведите на нее мышь.

Затем щелкните, чтобы увидеть метеонаблюдения и метеопрогнозы.

Управление картой: чтобы увеличить масштаб, щелкните зеленые кнопки с черным крестиком; чтобы уменьшить масштаб, щелкните зеленую кнопку с тире; для просмотра соседних карт щелкайте зеленые стрелки.


METAR-TAF: